sensor_id;sensor_type;location;lat;lon;timestamp;pressure;altitude;pressure_sealevel;temperature;humidity
34921;BME280;21128;50.016;20.002;2023-10-13T00:00:40;98922.48;;;14.80;100.00
34921;BME280;21128;50.016;20.002;2023-10-13T00:03:27;98917.02;;;14.78;100.00
34921;BME280;21128;50.016;20.002;2023-10-13T00:05:58;98916.50;;;14.78;100.00
34921;BME280;21128;50.016;20.002;2023-10-13T00:08:30;98916.70;;;14.78;100.00
34921;BME280;21128;50.016;20.002;2023-10-13T00:10:56;98922.88;;;14.78;100.00
34921;BME280;21128;50.016;20.002;2023-10-13T00:13:27;98922.39;;;14.78;100.00
34921;BME280;21128;50.016;20.002;2023-10-13T00:15:55;98921.99;;;14.78;100.00
34921;BME280;21128;50.016;20.002;2023-10-13T00:18:28;98918.48;;;14.79;100.00
34921;BME280;21128;50.016;20.002;2023-10-13T00:21:00;98916.38;;;14.81;100.00
34921;BME280;21128;50.016;20.002;2023-10-13T00:23:27;98916.29;;;14.82;100.00
34921;BME280;21128;50.016;20.002;2023-10-13T00:25:54;98919.34;;;14.84;100.00
34921;BME280;21128;50.016;20.002;2023-10-13T00:28:26;98921.59;;;14.88;100.00
34921;BME280;21128;50.016;20.002;2023-10-13T00:31:02;98923.26;;;14.89;100.00
34921;BME280;21128;50.016;20.002;2023-10-13T00:33:38;98922.89;;;14.89;100.00
34921;BME280;21128;50.016;20.002;2023-10-13T00:36:05;98922.34;;;14.87;100.00
34921;BME280;21128;50.016;20.002;2023-10-13T00:38:34;98914.07;;;14.87;100.00
34921;BME280;21128;50.016;20.002;2023-10-13T00:41:04;98907.27;;;14.87;100.00
34921;BME280;21128;50.016;20.002;2023-10-13T00:43:47;98912.59;;;14.85;100.00
34921;BME280;21128;50.016;20.002;2023-10-13T00:46:34;98916.68;;;14.80;100.00
34921;BME280;21128;50.016;20.002;2023-10-13T00:49:03;98914.52;;;14.77;100.00
34921;BME280;21128;50.016;20.002;2023-10-13T00:51:35;98916.48;;;14.75;100.00
34921;BME280;21128;50.016;20.002;2023-10-13T00:54:03;98916.33;;;14.74;100.00
34921;BME280;21128;50.016;20.002;2023-10-13T00:56:34;98913.54;;;14.75;100.00
34921;BME280;21128;50.016;20.002;2023-10-13T00:59:07;98915.92;;;14.76;100.00
34921;BME280;21128;50.016;20.002;2023-10-13T01:01:36;98912.73;;;14.74;100.00
34921;BME280;21128;50.016;20.002;2023-10-13T01:04:04;98911.95;;;14.71;100.00
34921;BME280;21128;50.016;20.002;2023-10-13T01:06:35;98913.23;;;14.69;100.00
34921;BME280;21128;50.016;20.002;2023-10-13T01:09:08;98912.86;;;14.67;100.00
34921;BME280;21128;50.016;20.002;2023-10-13T01:11:47;98913.48;;;14.62;100.00
34921;BME280;21128;50.016;20.002;2023-10-13T01:14:19;98905.27;;;14.57;100.00
34921;BME280;21128;50.016;20.002;2023-10-13T01:16:48;98900.67;;;14.53;100.00
34921;BME280;21128;50.016;20.002;2023-10-13T01:19:19;98900.83;;;14.47;100.00
34921;BME280;21128;50.016;20.002;2023-10-13T01:21:51;98900.02;;;14.43;100.00
34921;BME280;21128;50.016;20.002;2023-10-13T01:24:23;98892.34;;;14.39;100.00
34921;BME280;21128;50.016;20.002;2023-10-13T01:26:50;98891.73;;;14.36;100.00
34921;BME280;21128;50.016;20.002;2023-10-13T01:29:20;98890.30;;;14.35;100.00
34921;BME280;21128;50.016;20.002;2023-10-13T01:31:52;98884.32;;;14.34;100.00
34921;BME280;21128;50.016;20.002;2023-10-13T01:34:19;98884.00;;;14.34;100.00
34921;BME280;21128;50.016;20.002;2023-10-13T01:36:49;98883.94;;;14.33;100.00
34921;BME280;21128;50.016;20.002;2023-10-13T01:39:18;98888.30;;;14.32;100.00
34921;BME280;21128;50.016;20.002;2023-10-13T01:41:47;98887.94;;;14.31;100.00
34921;BME280;21128;50.016;20.002;2023-10-13T01:44:23;98889.64;;;14.30;100.00
34921;BME280;21128;50.016;20.002;2023-10-13T01:46:49;98886.95;;;14.30;100.00
34921;BME280;21128;50.016;20.002;2023-10-13T01:49:17;98889.64;;;14.30;100.00
34921;BME280;21128;50.016;20.002;2023-10-13T01:51:44;98887.08;;;14.29;100.00
34921;BME280;21128;50.016;20.002;2023-10-13T01:54:14;98890.08;;;14.29;100.00
34921;BME280;21128;50.016;20.002;2023-10-13T01:56:42;98889.52;;;14.31;100.00
34921;BME280;21128;50.016;20.002;2023-10-13T01:59:13;98887.52;;;14.33;100.00
34921;BME280;21128;50.016;20.002;2023-10-13T02:01:40;98885.91;;;14.34;100.00
34921;BME280;21128;50.016;20.002;2023-10-13T02:04:09;98880.77;;;14.33;100.00
34921;BME280;21128;50.016;20.002;2023-10-13T02:06:37;98878.45;;;14.33;100.00
34921;BME280;21128;50.016;20.002;2023-10-13T02:09:05;98875.04;;;14.34;100.00
34921;BME280;21128;50.016;20.002;2023-10-13T02:11:44;98872.11;;;14.35;100.00
34921;BME280;21128;50.016;20.002;2023-10-13T02:14:15;98872.06;;;14.37;100.00
34921;BME280;21128;50.016;20.002;2023-10-13T02:16:43;98869.27;;;14.37;100.00
34921;BME280;21128;50.016;20.002;2023-10-13T02:19:13;98869.95;;;14.37;100.00
34921;BME280;21128;50.016;20.002;2023-10-13T02:21:42;98865.98;;;14.35;100.00
34921;BME280;21128;50.016;20.002;2023-10-13T02:24:11;98868.31;;;14.31;100.00
34921;BME280;21128;50.016;20.002;2023-10-13T02:26:45;98874.07;;;14.30;100.00
34921;BME280;21128;50.016;20.002;2023-10-13T02:29:12;98873.64;;;14.29;100.00
34921;BME280;21128;50.016;20.002;2023-10-13T02:31:42;98869.55;;;14.28;100.00
34921;BME280;21128;50.016;20.002;2023-10-13T02:34:21;98866.46;;;14.24;100.00
34921;BME280;21128;50.016;20.002;2023-10-13T02:36:51;98868.93;;;14.21;100.00
34921;BME280;21128;50.016;20.002;2023-10-13T02:39:20;98864.92;;;14.19;100.00
34921;BME280;21128;50.016;20.002;2023-10-13T02:41:53;98869.00;;;14.17;100.00
34921;BME280;21128;50.016;20.002;2023-10-13T02:44:22;98868.48;;;14.14;100.00
34921;BME280;21128;50.016;20.002;2023-10-13T02:46:58;98868.05;;;14.11;100.00
34921;BME280;21128;50.016;20.002;2023-10-13T02:49:26;98865.95;;;14.09;100.00
34921;BME280;21128;50.016;20.002;2023-10-13T02:51:53;98865.42;;;14.06;100.00
34921;BME280;21128;50.016;20.002;2023-10-13T02:54:25;98864.44;;;14.03;100.00
34921;BME280;21128;50.016;20.002;2023-10-13T02:56:58;98865.38;;;14.00;100.00
34921;BME280;21128;50.016;20.002;2023-10-13T02:59:28;98868.10;;;13.94;100.00
34921;BME280;21128;50.016;20.002;2023-10-13T03:02:02;98871.84;;;13.91;100.00
34921;BME280;21128;50.016;20.002;2023-10-13T03:04:45;98877.23;;;13.85;100.00
34921;BME280;21128;50.016;20.002;2023-10-13T03:07:12;98877.07;;;13.81;100.00
34921;BME280;21128;50.016;20.002;2023-10-13T03:09:42;98877.31;;;13.75;100.00
34921;BME280;21128;50.016;20.002;2023-10-13T03:12:19;98882.46;;;13.69;100.00
34921;BME280;21128;50.016;20.002;2023-10-13T03:14:46;98878.70;;;13.67;100.00
34921;BME280;21128;50.016;20.002;2023-10-13T03:17:15;98881.16;;;13.64;100.00
34921;BME280;21128;50.016;20.002;2023-10-13T03:19:46;98875.33;;;13.58;100.00
34921;BME280;21128;50.016;20.002;2023-10-13T03:22:21;98869.52;;;13.50;100.00
34921;BME280;21128;50.016;20.002;2023-10-13T03:24:58;98872.21;;;13.48;100.00
34921;BME280;21128;50.016;20.002;2023-10-13T03:27:33;98871.36;;;13.48;100.00
34921;BME280;21128;50.016;20.002;2023-10-13T03:30:15;98869.05;;;13.47;100.00
34921;BME280;21128;50.016;20.002;2023-10-13T03:32:43;98866.67;;;13.46;100.00
34921;BME280;21128;50.016;20.002;2023-10-13T03:35:12;98871.20;;;13.48;100.00
34921;BME280;21128;50.016;20.002;2023-10-13T03:37:51;98872.45;;;13.51;100.00
34921;BME280;21128;50.016;20.002;2023-10-13T03:40:19;98874.56;;;13.52;100.00
34921;BME280;21128;50.016;20.002;2023-10-13T03:42:50;98875.52;;;13.53;100.00
34921;BME280;21128;50.016;20.002;2023-10-13T03:45:27;98879.67;;;13.55;100.00
34921;BME280;21128;50.016;20.002;2023-10-13T03:47:53;98887.45;;;13.54;100.00
34921;BME280;21128;50.016;20.002;2023-10-13T03:50:20;98888.98;;;13.51;100.00
34921;BME280;21128;50.016;20.002;2023-10-13T03:52:58;98892.34;;;13.46;100.00
34921;BME280;21128;50.016;20.002;2023-10-13T03:55:25;98894.16;;;13.42;100.00
34921;BME280;21128;50.016;20.002;2023-10-13T03:57:56;98893.23;;;13.39;100.00
34921;BME280;21128;50.016;20.002;2023-10-13T04:00:26;98893.66;;;13.33;100.00
34921;BME280;21128;50.016;20.002;2023-10-13T04:02:55;98893.64;;;13.29;100.00
34921;BME280;21128;50.016;20.002;2023-10-13T04:05:33;98893.95;;;13.26;100.00
34921;BME280;21128;50.016;20.002;2023-10-13T04:08:13;98895.63;;;13.22;100.00
34921;BME280;21128;50.016;20.002;2023-10-13T04:10:56;98897.30;;;13.20;100.00
34921;BME280;21128;50.016;20.002;2023-10-13T04:13:23;98896.65;;;13.19;100.00
34921;BME280;21128;50.016;20.002;2023-10-13T04:16:09;98898.16;;;13.20;100.00
34921;BME280;21128;50.016;20.002;2023-10-13T04:22:43;98897.27;;;13.21;100.00
34921;BME280;21128;50.016;20.002;2023-10-13T04:25:21;98893.79;;;13.22;100.00
34921;BME280;21128;50.016;20.002;2023-10-13T04:28:08;98887.16;;;13.27;100.00
34921;BME280;21128;50.016;20.002;2023-10-13T04:33:29;98891.52;;;13.34;100.00
34921;BME280;21128;50.016;20.002;2023-10-13T04:36:15;98889.19;;;13.36;100.00
34921;BME280;21128;50.016;20.002;2023-10-13T04:39:03;98889.44;;;13.40;100.00
34921;BME280;21128;50.016;20.002;2023-10-13T04:41:37;98897.20;;;13.43;100.00
34921;BME280;21128;50.016;20.002;2023-10-13T04:44:06;98895.47;;;13.46;100.00
34921;BME280;21128;50.016;20.002;2023-10-13T04:46:52;98901.68;;;13.49;100.00
34921;BME280;21128;50.016;20.002;2023-10-13T04:49:42;98900.89;;;13.54;100.00
34921;BME280;21128;50.016;20.002;2023-10-13T04:52:09;98902.30;;;13.57;100.00
34921;BME280;21128;50.016;20.002;2023-10-13T04:54:41;98904.49;;;13.59;100.00
34921;BME280;21128;50.016;20.002;2023-10-13T04:57:17;98907.82;;;13.63;100.00
34921;BME280;21128;50.016;20.002;2023-10-13T05:00:04;98909.90;;;13.65;100.00
34921;BME280;21128;50.016;20.002;2023-10-13T05:02:42;98908.98;;;13.65;100.00
34921;BME280;21128;50.016;20.002;2023-10-13T05:05:27;98910.26;;;13.65;100.00
34921;BME280;21128;50.016;20.002;2023-10-13T05:08:13;98903.56;;;13.67;100.00
34921;BME280;21128;50.016;20.002;2023-10-13T05:11:05;98906.00;;;13.70;100.00
34921;BME280;21128;50.016;20.002;2023-10-13T05:14:01;98911.50;;;13.74;100.00
34921;BME280;21128;50.016;20.002;2023-10-13T05:16:47;98916.64;;;13.79;100.00
34921;BME280;21128;50.016;20.002;2023-10-13T05:19:33;98916.89;;;13.86;100.00
34921;BME280;21128;50.016;20.002;2023-10-13T05:22:18;98921.43;;;13.90;100.00
34921;BME280;21128;50.016;20.002;2023-10-13T05:25:14;98923.80;;;13.92;100.00
34921;BME280;21128;50.016;20.002;2023-10-13T05:28:00;98923.91;;;13.94;100.00
34921;BME280;21128;50.016;20.002;2023-10-13T05:30:45;98929.05;;;13.97;100.00
34921;BME280;21128;50.016;20.002;2023-10-13T05:33:30;98935.08;;;13.95;100.00
34921;BME280;21128;50.016;20.002;2023-10-13T05:36:16;98944.02;;;13.92;100.00
34921;BME280;21128;50.016;20.002;2023-10-13T05:39:01;98942.98;;;13.92;100.00
34921;BME280;21128;50.016;20.002;2023-10-13T05:41:47;98946.27;;;13.93;100.00
34921;BME280;21128;50.016;20.002;2023-10-13T05:44:32;98951.08;;;13.92;100.00
34921;BME280;21128;50.016;20.002;2023-10-13T05:47:04;98950.59;;;13.90;100.00
34921;BME280;21128;50.016;20.002;2023-10-13T05:50:10;98945.37;;;13.88;100.00
34921;BME280;21128;50.016;20.002;2023-10-13T05:52:47;98953.15;;;13.88;100.00
34921;BME280;21128;50.016;20.002;2023-10-13T05:55:30;98952.17;;;13.90;100.00
34921;BME280;21128;50.016;20.002;2023-10-13T05:58:16;98955.70;;;13.93;100.00
34921;BME280;21128;50.016;20.002;2023-10-13T06:01:01;98953.41;;;13.97;100.00
34921;BME280;21128;50.016;20.002;2023-10-13T06:03:47;98956.40;;;13.98;100.00
34921;BME280;21128;50.016;20.002;2023-10-13T06:06:32;98959.23;;;14.02;100.00
34921;BME280;21128;50.016;20.002;2023-10-13T06:09:18;98961.00;;;14.05;100.00
34921;BME280;21128;50.016;20.002;2023-10-13T06:12:03;98959.41;;;14.08;100.00
34921;BME280;21128;50.016;20.002;2023-10-13T06:14:49;98959.31;;;14.11;100.00
34921;BME280;21128;50.016;20.002;2023-10-13T06:17:34;98962.28;;;14.13;100.00
34921;BME280;21128;50.016;20.002;2023-10-13T06:20:20;98966.58;;;14.14;100.00
34921;BME280;21128;50.016;20.002;2023-10-13T06:23:05;98960.20;;;14.16;100.00
34921;BME280;21128;50.016;20.002;2023-10-13T06:25:51;98961.15;;;14.18;100.00
34921;BME280;21128;50.016;20.002;2023-10-13T06:28:37;98965.12;;;14.21;100.00
34921;BME280;21128;50.016;20.002;2023-10-13T06:31:09;98968.41;;;14.23;100.00
34921;BME280;21128;50.016;20.002;2023-10-13T06:33:48;98970.95;;;14.26;100.00
34921;BME280;21128;50.016;20.002;2023-10-13T06:36:15;98975.01;;;14.27;100.00
34921;BME280;21128;50.016;20.002;2023-10-13T06:38:44;98972.00;;;14.27;100.00
34921;BME280;21128;50.016;20.002;2023-10-13T06:41:11;98972.27;;;14.28;100.00
34921;BME280;21128;50.016;20.002;2023-10-13T06:43:46;98971.48;;;14.29;100.00
34921;BME280;21128;50.016;20.002;2023-10-13T06:46:26;98974.54;;;14.30;100.00
34921;BME280;21128;50.016;20.002;2023-10-13T06:48:55;98972.02;;;14.32;100.00
34921;BME280;21128;50.016;20.002;2023-10-13T06:51:25;98973.94;;;14.34;100.00
34921;BME280;21128;50.016;20.002;2023-10-13T06:53:57;98976.55;;;14.36;100.00
34921;BME280;21128;50.016;20.002;2023-10-13T06:56:24;98975.08;;;14.38;100.00
34921;BME280;21128;50.016;20.002;2023-10-13T06:58:55;98971.11;;;14.43;100.00
34921;BME280;21128;50.016;20.002;2023-10-13T07:01:26;98974.58;;;14.47;100.00
34921;BME280;21128;50.016;20.002;2023-10-13T07:03:54;98970.50;;;14.50;100.00
34921;BME280;21128;50.016;20.002;2023-10-13T07:06:22;98972.39;;;14.54;100.00
34921;BME280;21128;50.016;20.002;2023-10-13T07:08:49;98975.86;;;14.61;100.00
34921;BME280;21128;50.016;20.002;2023-10-13T07:11:24;98972.91;;;14.70;100.00
34921;BME280;21128;50.016;20.002;2023-10-13T07:14:04;98971.27;;;14.79;100.00
34921;BME280;21128;50.016;20.002;2023-10-13T07:16:55;98974.34;;;14.86;100.00
34921;BME280;21128;50.016;20.002;2023-10-13T07:19:26;98974.49;;;14.93;100.00
34921;BME280;21128;50.016;20.002;2023-10-13T07:22:00;98977.52;;;15.00;100.00
34921;BME280;21128;50.016;20.002;2023-10-13T07:24:46;98976.00;;;15.05;100.00
34921;BME280;21128;50.016;20.002;2023-10-13T07:27:20;98980.44;;;15.10;100.00
34921;BME280;21128;50.016;20.002;2023-10-13T07:29:52;98980.11;;;15.14;100.00
34921;BME280;21128;50.016;20.002;2023-10-13T07:32:38;98981.09;;;15.20;100.00
34921;BME280;21128;50.016;20.002;2023-10-13T07:35:05;98982.74;;;15.24;100.00
34921;BME280;21128;50.016;20.002;2023-10-13T07:37:35;98985.99;;;15.30;100.00
34921;BME280;21128;50.016;20.002;2023-10-13T07:40:03;98986.54;;;15.36;100.00
34921;BME280;21128;50.016;20.002;2023-10-13T07:42:48;98983.30;;;15.40;100.00
34921;BME280;21128;50.016;20.002;2023-10-13T07:45:15;98984.11;;;15.43;100.00
34921;BME280;21128;50.016;20.002;2023-10-13T07:47:51;98982.41;;;15.49;100.00
34921;BME280;21128;50.016;20.002;2023-10-13T07:50:18;98982.27;;;15.56;100.00
34921;BME280;21128;50.016;20.002;2023-10-13T07:52:51;98981.77;;;15.65;100.00
34921;BME280;21128;50.016;20.002;2023-10-13T07:55:53;98985.61;;;15.79;100.00
34921;BME280;21128;50.016;20.002;2023-10-13T07:58:29;98986.48;;;15.94;100.00
34921;BME280;21128;50.016;20.002;2023-10-13T08:00:58;98985.21;;;16.05;100.00
34921;BME280;21128;50.016;20.002;2023-10-13T08:03:25;98985.55;;;16.18;100.00
34921;BME280;21128;50.016;20.002;2023-10-13T08:06:01;98984.73;;;16.32;100.00
34921;BME280;21128;50.016;20.002;2023-10-13T08:08:38;98981.52;;;16.48;100.00
34921;BME280;21128;50.016;20.002;2023-10-13T08:11:08;98980.27;;;16.63;100.00
34921;BME280;21128;50.016;20.002;2023-10-13T08:13:39;98975.63;;;16.81;100.00
34921;BME280;21128;50.016;20.002;2023-10-13T08:16:13;98970.09;;;17.10;100.00
34921;BME280;21128;50.016;20.002;2023-10-13T08:18:49;98969.64;;;17.42;100.00
34921;BME280;21128;50.016;20.002;2023-10-13T08:21:20;98965.61;;;17.73;100.00
34921;BME280;21128;50.016;20.002;2023-10-13T08:23:51;98962.15;;;18.06;100.00
34921;BME280;21128;50.016;20.002;2023-10-13T08:26:22;98964.31;;;18.34;100.00
34921;BME280;21128;50.016;20.002;2023-10-13T08:29:07;98965.41;;;18.63;100.00
34921;BME280;21128;50.016;20.002;2023-10-13T08:31:51;98966.70;;;18.85;100.00
34921;BME280;21128;50.016;20.002;2023-10-13T08:34:31;98962.56;;;19.11;100.00
34921;BME280;21128;50.016;20.002;2023-10-13T08:37:10;98965.54;;;19.32;100.00
34921;BME280;21128;50.016;20.002;2023-10-13T08:39:57;98968.11;;;19.37;100.00
34921;BME280;21128;50.016;20.002;2023-10-13T08:42:37;98970.11;;;19.35;100.00
34921;BME280;21128;50.016;20.002;2023-10-13T08:45:09;98969.05;;;19.48;100.00
34921;BME280;21128;50.016;20.002;2023-10-13T08:47:58;98967.59;;;19.80;100.00
34921;BME280;21128;50.016;20.002;2023-10-13T08:50:36;98969.38;;;20.29;100.00
34921;BME280;21128;50.016;20.002;2023-10-13T08:56:07;98962.56;;;21.19;100.00
34921;BME280;21128;50.016;20.002;2023-10-13T08:58:37;98969.77;;;21.63;100.00
34921;BME280;21128;50.016;20.002;2023-10-13T09:01:24;98972.89;;;21.66;100.00
34921;BME280;21128;50.016;20.002;2023-10-13T09:04:07;98968.42;;;21.43;100.00
34921;BME280;21128;50.016;20.002;2023-10-13T09:07:05;98964.84;;;21.48;100.00
34921;BME280;21128;50.016;20.002;2023-10-13T09:09:33;98967.89;;;21.74;100.00
34921;BME280;21128;50.016;20.002;2023-10-13T09:12:12;98966.85;;;21.88;100.00
34921;BME280;21128;50.016;20.002;2023-10-13T09:14:42;98966.80;;;22.22;100.00
34921;BME280;21128;50.016;20.002;2023-10-13T09:17:13;98972.98;;;22.50;99.25
34921;BME280;21128;50.016;20.002;2023-10-13T09:22:55;98974.88;;;22.44;96.04
34921;BME280;21128;50.016;20.002;2023-10-13T09:25:28;98978.70;;;22.72;96.65
34921;BME280;21128;50.016;20.002;2023-10-13T09:28:11;98975.39;;;22.86;95.46
34921;BME280;21128;50.016;20.002;2023-10-13T09:30:59;98970.77;;;23.08;95.72
34921;BME280;21128;50.016;20.002;2023-10-13T09:33:31;98961.46;;;23.30;91.30
34921;BME280;21128;50.016;20.002;2023-10-13T09:36:12;98953.41;;;23.23;91.90
34921;BME280;21128;50.016;20.002;2023-10-13T09:38:39;98952.14;;;23.31;90.42
34921;BME280;21128;50.016;20.002;2023-10-13T09:41:07;98946.66;;;23.41;91.24
34921;BME280;21128;50.016;20.002;2023-10-13T09:43:53;98946.16;;;23.64;90.63
34921;BME280;21128;50.016;20.002;2023-10-13T09:46:26;98949.96;;;23.67;88.58
34921;BME280;21128;50.016;20.002;2023-10-13T09:48:58;98944.92;;;23.67;89.46
34921;BME280;21128;50.016;20.002;2023-10-13T09:51:34;98950.54;;;24.14;90.16
34921;BME280;21128;50.016;20.002;2023-10-13T09:54:09;98952.93;;;24.28;85.56
34921;BME280;21128;50.016;20.002;2023-10-13T09:56:51;98948.09;;;24.02;83.08
34921;BME280;21128;50.016;20.002;2023-10-13T09:59:26;98943.77;;;24.20;84.51
34921;BME280;21128;50.016;20.002;2023-10-13T10:02:04;98943.55;;;24.39;82.48
34921;BME280;21128;50.016;20.002;2023-10-13T10:04:55;98942.48;;;24.67;82.00
34921;BME280;21128;50.016;20.002;2023-10-13T10:07:39;98938.04;;;24.82;81.32
34921;BME280;21128;50.016;20.002;2023-10-13T10:10:21;98940.54;;;24.90;77.25
34921;BME280;21128;50.016;20.002;2023-10-13T10:12:58;98935.08;;;24.84;70.96
34921;BME280;21128;50.016;20.002;2023-10-13T10:15:35;98930.86;;;24.93;69.97
34921;BME280;21128;50.016;20.002;2023-10-13T10:18:19;98926.87;;;24.92;69.68
34921;BME280;21128;50.016;20.002;2023-10-13T10:20:49;98923.55;;;25.07;69.17
34921;BME280;21128;50.016;20.002;2023-10-13T10:23:25;98921.84;;;25.05;68.82
34921;BME280;21128;50.016;20.002;2023-10-13T10:25:55;98912.24;;;25.12;68.23
34921;BME280;21128;50.016;20.002;2023-10-13T10:28:38;98915.29;;;25.00;67.77
34921;BME280;21128;50.016;20.002;2023-10-13T10:31:09;98910.10;;;25.01;68.30
34921;BME280;21128;50.016;20.002;2023-10-13T10:33:39;98905.02;;;25.09;68.68
34921;BME280;21128;50.016;20.002;2023-10-13T10:36:07;98908.35;;;25.30;67.27
34921;BME280;21128;50.016;20.002;2023-10-13T10:39:01;98907.88;;;25.00;65.85
34921;BME280;21128;50.016;20.002;2023-10-13T10:41:31;98910.16;;;24.55;65.97
34921;BME280;21128;50.016;20.002;2023-10-13T10:46:43;98903.23;;;24.84;66.97
34921;BME280;21128;50.016;20.002;2023-10-13T10:49:26;98899.41;;;24.63;66.50
34921;BME280;21128;50.016;20.002;2023-10-13T10:51:58;98899.48;;;24.53;66.93
34921;BME280;21128;50.016;20.002;2023-10-13T10:54:32;98898.71;;;24.41;66.91
34921;BME280;21128;50.016;20.002;2023-10-13T10:56:59;98893.92;;;24.20;66.68
34921;BME280;21128;50.016;20.002;2023-10-13T10:59:45;98891.30;;;24.26;67.12
34921;BME280;21128;50.016;20.002;2023-10-13T11:02:12;98885.92;;;24.44;67.83
34921;BME280;21128;50.016;20.002;2023-10-13T11:04:50;98878.09;;;25.02;68.23
34921;BME280;21128;50.016;20.002;2023-10-13T11:07:22;98874.14;;;25.45;67.37
34921;BME280;21128;50.016;20.002;2023-10-13T11:09:50;98869.60;;;25.87;67.17
34921;BME280;21128;50.016;20.002;2023-10-13T11:12:19;98868.98;;;26.29;66.52
34921;BME280;21128;50.016;20.002;2023-10-13T11:15:02;98865.88;;;26.48;64.28
34921;BME280;21128;50.016;20.002;2023-10-13T11:17:29;98867.59;;;26.67;63.93
34921;BME280;21128;50.016;20.002;2023-10-13T11:20:12;98867.11;;;26.48;59.07
34921;BME280;21128;50.016;20.002;2023-10-13T11:22:52;98863.83;;;26.36;59.44
34921;BME280;21128;50.016;20.002;2023-10-13T11:25:27;98860.17;;;26.62;58.66
34921;BME280;21128;50.016;20.002;2023-10-13T11:27:56;98858.00;;;26.92;58.43
34921;BME280;21128;50.016;20.002;2023-10-13T11:30:32;98856.04;;;27.04;57.44
34921;BME280;21128;50.016;20.002;2023-10-13T11:33:08;98856.96;;;27.02;57.30
34921;BME280;21128;50.016;20.002;2023-10-13T11:35:38;98852.27;;;27.01;56.42
34921;BME280;21128;50.016;20.002;2023-10-13T11:38:24;98847.45;;;26.82;55.17
34921;BME280;21128;50.016;20.002;2023-10-13T11:40:59;98850.96;;;26.36;55.19
34921;BME280;21128;50.016;20.002;2023-10-13T11:46:26;98854.27;;;25.76;55.05
34921;BME280;21128;50.016;20.002;2023-10-13T11:51:49;98850.15;;;25.50;56.03
34921;BME280;21128;50.016;20.002;2023-10-13T11:56:48;98843.73;;;25.50;56.65
34921;BME280;21128;50.016;20.002;2023-10-13T11:59:15;98847.18;;;25.66;56.60
34921;BME280;21128;50.016;20.002;2023-10-13T12:01:53;98841.42;;;25.84;56.48
34921;BME280;21128;50.016;20.002;2023-10-13T12:04:39;98843.31;;;25.66;55.19
34921;BME280;21128;50.016;20.002;2023-10-13T12:07:23;98839.49;;;25.20;55.32
34921;BME280;21128;50.016;20.002;2023-10-13T12:09:54;98838.58;;;24.81;55.80
34921;BME280;21128;50.016;20.002;2023-10-13T12:12:25;98840.53;;;24.56;55.74
34921;BME280;21128;50.016;20.002;2023-10-13T12:14:53;98831.34;;;24.28;55.81
34921;BME280;21128;50.016;20.002;2023-10-13T12:17:28;98833.17;;;24.16;56.47
34921;BME280;21128;50.016;20.002;2023-10-13T12:19:58;98833.55;;;24.04;56.49
34921;BME280;21128;50.016;20.002;2023-10-13T12:22:32;98825.48;;;23.85;56.37
34921;BME280;21128;50.016;20.002;2023-10-13T12:25:25;98822.46;;;23.72;57.06
34921;BME280;21128;50.016;20.002;2023-10-13T12:28:00;98820.88;;;23.67;57.32
34921;BME280;21128;50.016;20.002;2023-10-13T12:30:45;98827.58;;;23.54;57.57
34921;BME280;21128;50.016;20.002;2023-10-13T12:33:16;98828.16;;;23.37;57.89
34921;BME280;21128;50.016;20.002;2023-10-13T12:36:01;98825.25;;;23.25;58.26
34921;BME280;21128;50.016;20.002;2023-10-13T12:38:37;98820.12;;;23.18;58.65
34921;BME280;21128;50.016;20.002;2023-10-13T12:41:20;98821.12;;;23.18;59.35
34921;BME280;21128;50.016;20.002;2023-10-13T12:44:06;98817.16;;;23.18;59.41
34921;BME280;21128;50.016;20.002;2023-10-13T12:46:52;98813.66;;;23.10;59.63
34921;BME280;21128;50.016;20.002;2023-10-13T12:49:38;98807.95;;;23.09;60.11
34921;BME280;21128;50.016;20.002;2023-10-13T12:52:15;98809.60;;;23.11;59.96
34921;BME280;21128;50.016;20.002;2023-10-13T12:54:54;98811.59;;;23.11;60.16
34921;BME280;21128;50.016;20.002;2023-10-13T12:57:25;98805.80;;;23.10;60.20
34921;BME280;21128;50.016;20.002;2023-10-13T12:59:52;98804.54;;;22.92;59.66
34921;BME280;21128;50.016;20.002;2023-10-13T13:02:26;98801.11;;;22.71;60.19
34921;BME280;21128;50.016;20.002;2023-10-13T13:04:55;98801.69;;;22.63;60.59
34921;BME280;21128;50.016;20.002;2023-10-13T13:07:32;98797.73;;;22.60;61.03
34921;BME280;21128;50.016;20.002;2023-10-13T13:10:10;98796.15;;;22.58;61.54
34921;BME280;21128;50.016;20.002;2023-10-13T13:12:38;98798.76;;;22.67;61.79
34921;BME280;21128;50.016;20.002;2023-10-13T13:15:05;98797.86;;;22.79;62.06
34921;BME280;21128;50.016;20.002;2023-10-13T13:17:36;98786.48;;;22.90;62.30
34921;BME280;21128;50.016;20.002;2023-10-13T13:20:03;98784.66;;;22.94;62.37
34921;BME280;21128;50.016;20.002;2023-10-13T13:22:40;98785.23;;;22.96;62.47
34921;BME280;21128;50.016;20.002;2023-10-13T13:25:07;98781.10;;;22.96;62.28
34921;BME280;21128;50.016;20.002;2023-10-13T13:27:35;98782.08;;;22.89;61.96
34921;BME280;21128;50.016;20.002;2023-10-13T13:30:04;98786.08;;;22.82;62.00
34921;BME280;21128;50.016;20.002;2023-10-13T13:32:39;98787.55;;;22.80;62.30
34921;BME280;21128;50.016;20.002;2023-10-13T13:35:07;98783.30;;;22.83;62.45
34921;BME280;21128;50.016;20.002;2023-10-13T13:37:40;98785.55;;;22.86;62.61
34921;BME280;21128;50.016;20.002;2023-10-13T13:40:09;98783.11;;;22.92;62.60
34921;BME280;21128;50.016;20.002;2023-10-13T13:42:43;98778.15;;;22.93;62.68
34921;BME280;21128;50.016;20.002;2023-10-13T13:45:16;98770.22;;;22.94;62.92
34921;BME280;21128;50.016;20.002;2023-10-13T13:47:54;98765.86;;;22.94;63.08